sensor_id;sensor_type;location;lat;lon;timestamp;pressure;altitude;pressure_sealevel;temperature
54746;BMP180;40640;48.130;11.356;2022-08-02T00:01:43;95943.00;;;17.90
54746;BMP180;40640;48.130;11.356;2022-08-02T00:05:46;95945.00;;;17.70
54746;BMP180;40640;48.130;11.356;2022-08-02T00:09:54;95947.00;;;17.50
54746;BMP180;40640;48.130;11.356;2022-08-02T00:13:57;95947.00;;;17.40
54746;BMP180;40640;48.130;11.356;2022-08-02T00:18:01;95958.00;;;17.50
54746;BMP180;40640;48.130;11.356;2022-08-02T00:22:03;95952.00;;;17.60
54746;BMP180;40640;48.130;11.356;2022-08-02T00:26:06;95963.00;;;17.60
54746;BMP180;40640;48.130;11.356;2022-08-02T00:30:10;95964.00;;;17.70
54746;BMP180;40640;48.130;11.356;2022-08-02T00:34:14;95958.00;;;17.50
54746;BMP180;40640;48.130;11.356;2022-08-02T00:38:32;95950.00;;;17.40
54746;BMP180;40640;48.130;11.356;2022-08-02T00:42:35;95939.00;;;17.20
54746;BMP180;40640;48.130;11.356;2022-08-02T00:46:43;95939.00;;;17.20
54746;BMP180;40640;48.130;11.356;2022-08-02T00:50:47;95932.00;;;17.10
54746;BMP180;40640;48.130;11.356;2022-08-02T00:54:49;95928.00;;;17.10
54746;BMP180;40640;48.130;11.356;2022-08-02T00:58:52;95932.00;;;17.00
54746;BMP180;40640;48.130;11.356;2022-08-02T01:02:55;95928.00;;;17.00
54746;BMP180;40640;48.130;11.356;2022-08-02T01:07:00;95932.00;;;17.00
54746;BMP180;40640;48.130;11.356;2022-08-02T01:11:13;95939.00;;;17.20
54746;BMP180;40640;48.130;11.356;2022-08-02T01:15:16;95938.00;;;17.40
54746;BMP180;40640;48.130;11.356;2022-08-02T01:19:31;95936.00;;;17.40
54746;BMP180;40640;48.130;11.356;2022-08-02T01:23:48;95935.00;;;17.50
54746;BMP180;40640;48.130;11.356;2022-08-02T01:28:16;95938.00;;;17.50
54746;BMP180;40640;48.130;11.356;2022-08-02T01:32:27;95934.00;;;17.40
54746;BMP180;40640;48.130;11.356;2022-08-02T01:36:34;95921.00;;;17.20
54746;BMP180;40640;48.130;11.356;2022-08-02T01:40:38;95921.00;;;17.20
54746;BMP180;40640;48.130;11.356;2022-08-02T01:44:45;95922.00;;;17.30
54746;BMP180;40640;48.130;11.356;2022-08-02T01:48:49;95916.00;;;17.40
54746;BMP180;40640;48.130;11.356;2022-08-02T01:52:56;95924.00;;;17.10
54746;BMP180;40640;48.130;11.356;2022-08-02T01:57:01;95904.00;;;16.90
54746;BMP180;40640;48.130;11.356;2022-08-02T02:01:08;95903.00;;;16.90
54746;BMP180;40640;48.130;11.356;2022-08-02T02:05:20;95916.00;;;16.80
54746;BMP180;40640;48.130;11.356;2022-08-02T02:09:26;95909.00;;;17.00
54746;BMP180;40640;48.130;11.356;2022-08-02T02:13:30;95903.00;;;17.00
54746;BMP180;40640;48.130;11.356;2022-08-02T02:17:36;95913.00;;;17.00
54746;BMP180;40640;48.130;11.356;2022-08-02T02:22:01;95916.00;;;16.90
54746;BMP180;40640;48.130;11.356;2022-08-02T02:26:04;95905.00;;;16.70
54746;BMP180;40640;48.130;11.356;2022-08-02T02:30:11;95914.00;;;16.70
54746;BMP180;40640;48.130;11.356;2022-08-02T02:34:24;95913.00;;;16.70
54746;BMP180;40640;48.130;11.356;2022-08-02T02:38:30;95908.00;;;16.70
54746;BMP180;40640;48.130;11.356;2022-08-02T02:42:34;95909.00;;;16.60
54746;BMP180;40640;48.130;11.356;2022-08-02T02:46:42;95913.00;;;16.60
54746;BMP180;40640;48.130;11.356;2022-08-02T02:50:47;95908.00;;;16.50
54746;BMP180;40640;48.130;11.356;2022-08-02T02:54:52;95900.00;;;16.60
54746;BMP180;40640;48.130;11.356;2022-08-02T02:58:55;95907.00;;;16.60
54746;BMP180;40640;48.130;11.356;2022-08-02T03:03:01;95904.00;;;16.50
54746;BMP180;40640;48.130;11.356;2022-08-02T03:07:05;95902.00;;;16.70
54746;BMP180;40640;48.130;11.356;2022-08-02T03:11:08;95905.00;;;16.90
54746;BMP180;40640;48.130;11.356;2022-08-02T03:15:11;95902.00;;;17.00
54746;BMP180;40640;48.130;11.356;2022-08-02T03:19:16;95912.00;;;17.00
54746;BMP180;40640;48.130;11.356;2022-08-02T03:23:20;95904.00;;;16.70
54746;BMP180;40640;48.130;11.356;2022-08-02T03:27:23;95906.00;;;16.70
54746;BMP180;40640;48.130;11.356;2022-08-02T03:31:26;95916.00;;;16.60
54746;BMP180;40640;48.130;11.356;2022-08-02T03:35:33;95919.00;;;16.80
54746;BMP180;40640;48.130;11.356;2022-08-02T03:39:38;95918.00;;;17.00
54746;BMP180;40640;48.130;11.356;2022-08-02T03:43:53;95918.00;;;17.00
54746;BMP180;40640;48.130;11.356;2022-08-02T03:47:57;95922.00;;;17.00
54746;BMP180;40640;48.130;11.356;2022-08-02T03:52:00;95915.00;;;16.90
54746;BMP180;40640;48.130;11.356;2022-08-02T03:56:06;95913.00;;;17.00
54746;BMP180;40640;48.130;11.356;2022-08-02T04:00:10;95916.00;;;17.10
54746;BMP180;40640;48.130;11.356;2022-08-02T04:04:14;95923.00;;;17.10
54746;BMP180;40640;48.130;11.356;2022-08-02T04:08:17;95918.00;;;17.10
54746;BMP180;40640;48.130;11.356;2022-08-02T04:12:39;95925.00;;;17.20
54746;BMP180;40640;48.130;11.356;2022-08-02T04:16:44;95933.00;;;17.00
54746;BMP180;40640;48.130;11.356;2022-08-02T04:20:48;95928.00;;;16.80
54746;BMP180;40640;48.130;11.356;2022-08-02T04:24:54;95927.00;;;16.80
54746;BMP180;40640;48.130;11.356;2022-08-02T04:29:00;95936.00;;;17.00
54746;BMP180;40640;48.130;11.356;2022-08-02T04:33:04;95938.00;;;16.90
54746;BMP180;40640;48.130;11.356;2022-08-02T04:37:07;95939.00;;;16.90
54746;BMP180;40640;48.130;11.356;2022-08-02T04:41:10;95940.00;;;17.00
54746;BMP180;40640;48.130;11.356;2022-08-02T04:45:14;95959.00;;;16.90
54746;BMP180;40640;48.130;11.356;2022-08-02T04:49:18;95958.00;;;16.90
54746;BMP180;40640;48.130;11.356;2022-08-02T04:53:21;95952.00;;;16.90
54746;BMP180;40640;48.130;11.356;2022-08-02T04:57:23;95953.00;;;16.90
54746;BMP180;40640;48.130;11.356;2022-08-02T05:01:54;95950.00;;;17.00
54746;BMP180;40640;48.130;11.356;2022-08-02T05:05:57;95951.00;;;17.00
54746;BMP180;40640;48.130;11.356;2022-08-02T05:10:01;95951.00;;;17.00
54746;BMP180;40640;48.130;11.356;2022-08-02T05:14:04;95945.00;;;17.00
54746;BMP180;40640;48.130;11.356;2022-08-02T05:18:08;95949.00;;;17.20
54746;BMP180;40640;48.130;11.356;2022-08-02T05:22:13;95953.00;;;17.30
54746;BMP180;40640;48.130;11.356;2022-08-02T05:26:16;95949.00;;;17.50
54746;BMP180;40640;48.130;11.356;2022-08-02T05:30:19;95949.00;;;17.60
54746;BMP180;40640;48.130;11.356;2022-08-02T05:34:23;95950.00;;;17.80
54746;BMP180;40640;48.130;11.356;2022-08-02T05:38:26;95957.00;;;18.10
54746;BMP180;40640;48.130;11.356;2022-08-02T05:42:32;95972.00;;;18.60
54746;BMP180;40640;48.130;11.356;2022-08-02T05:46:35;95978.00;;;19.00
54746;BMP180;40640;48.130;11.356;2022-08-02T05:50:43;95967.00;;;19.10
54746;BMP180;40640;48.130;11.356;2022-08-02T05:54:49;95973.00;;;19.10
54746;BMP180;40640;48.130;11.356;2022-08-02T05:58:59;95963.00;;;19.40
54746;BMP180;40640;48.130;11.356;2022-08-02T06:03:14;95967.00;;;21.40
54746;BMP180;40640;48.130;11.356;2022-08-02T06:07:21;95956.00;;;24.30
54746;BMP180;40640;48.130;11.356;2022-08-02T06:11:33;95954.00;;;27.40
54746;BMP180;40640;48.130;11.356;2022-08-02T06:15:37;95949.00;;;31.30
54746;BMP180;40640;48.130;11.356;2022-08-02T06:19:56;95950.00;;;33.40
54746;BMP180;40640;48.130;11.356;2022-08-02T06:24:03;95972.00;;;28.60
54746;BMP180;40640;48.130;11.356;2022-08-02T06:28:07;95964.00;;;26.50
54746;BMP180;40640;48.130;11.356;2022-08-02T06:32:13;95971.00;;;24.30
54746;BMP180;40640;48.130;11.356;2022-08-02T06:36:23;95961.00;;;27.80
54746;BMP180;40640;48.130;11.356;2022-08-02T06:40:31;95966.00;;;29.70
54746;BMP180;40640;48.130;11.356;2022-08-02T06:44:36;95977.00;;;26.40
54746;BMP180;40640;48.130;11.356;2022-08-02T06:48:51;95991.00;;;24.30
54746;BMP180;40640;48.130;11.356;2022-08-02T06:52:54;95992.00;;;23.30
54746;BMP180;40640;48.130;11.356;2022-08-02T06:56:58;95998.00;;;22.90
54746;BMP180;40640;48.130;11.356;2022-08-02T07:01:01;95993.00;;;22.90
54746;BMP180;40640;48.130;11.356;2022-08-02T07:05:09;96001.00;;;24.20
54746;BMP180;40640;48.130;11.356;2022-08-02T07:09:12;95996.00;;;25.10
54746;BMP180;40640;48.130;11.356;2022-08-02T07:13:24;95995.00;;;24.40
54746;BMP180;40640;48.130;11.356;2022-08-02T07:17:27;95987.00;;;25.40
54746;BMP180;40640;48.130;11.356;2022-08-02T07:21:30;95994.00;;;24.10
54746;BMP180;40640;48.130;11.356;2022-08-02T07:25:53;95989.00;;;24.30
54746;BMP180;40640;48.130;11.356;2022-08-02T07:30:07;95998.00;;;23.10
54746;BMP180;40640;48.130;11.356;2022-08-02T07:34:10;95993.00;;;23.20
54746;BMP180;40640;48.130;11.356;2022-08-02T07:38:13;95990.00;;;23.20
54746;BMP180;40640;48.130;11.356;2022-08-02T07:42:18;95989.00;;;22.90
54746;BMP180;40640;48.130;11.356;2022-08-02T07:46:24;95988.00;;;23.30
54746;BMP180;40640;48.130;11.356;2022-08-02T07:50:29;95990.00;;;23.50
54746;BMP180;40640;48.130;11.356;2022-08-02T07:54:32;95986.00;;;23.90
54746;BMP180;40640;48.130;11.356;2022-08-02T07:58:35;95990.00;;;23.90
54746;BMP180;40640;48.130;11.356;2022-08-02T08:02:39;95992.00;;;24.10
54746;BMP180;40640;48.130;11.356;2022-08-02T08:06:42;95992.00;;;24.00
54746;BMP180;40640;48.130;11.356;2022-08-02T08:10:45;95987.00;;;24.40
54746;BMP180;40640;48.130;11.356;2022-08-02T08:14:48;95993.00;;;24.60
54746;BMP180;40640;48.130;11.356;2022-08-02T08:18:52;95985.00;;;25.10
54746;BMP180;40640;48.130;11.356;2022-08-02T08:22:55;95975.00;;;25.20
54746;BMP180;40640;48.130;11.356;2022-08-02T08:26:58;95967.00;;;25.20
54746;BMP180;40640;48.130;11.356;2022-08-02T08:31:01;95979.00;;;26.00
54746;BMP180;40640;48.130;11.356;2022-08-02T08:35:06;95971.00;;;26.20
54746;BMP180;40640;48.130;11.356;2022-08-02T08:39:09;95961.00;;;25.60
54746;BMP180;40640;48.130;11.356;2022-08-02T08:43:12;95965.00;;;26.20
54746;BMP180;40640;48.130;11.356;2022-08-02T08:47:15;95966.00;;;26.90
54746;BMP180;40640;48.130;11.356;2022-08-02T08:51:20;95984.00;;;25.90
54746;BMP180;40640;48.130;11.356;2022-08-02T08:55:25;95959.00;;;26.20
54746;BMP180;40640;48.130;11.356;2022-08-02T08:59:28;95960.00;;;26.70
54746;BMP180;40640;48.130;11.356;2022-08-02T09:03:39;95958.00;;;27.20
54746;BMP180;40640;48.130;11.356;2022-08-02T09:07:46;95949.00;;;27.80
54746;BMP180;40640;48.130;11.356;2022-08-02T09:11:49;95965.00;;;28.40
54746;BMP180;40640;48.130;11.356;2022-08-02T09:15:53;95948.00;;;27.70
54746;BMP180;40640;48.130;11.356;2022-08-02T09:20:07;95949.00;;;28.30
54746;BMP180;40640;48.130;11.356;2022-08-02T09:24:17;95953.00;;;29.30
54746;BMP180;40640;48.130;11.356;2022-08-02T09:28:20;95956.00;;;30.30
54746;BMP180;40640;48.130;11.356;2022-08-02T09:32:23;95958.00;;;30.70
54746;BMP180;40640;48.130;11.356;2022-08-02T09:36:27;95952.00;;;30.80
54746;BMP180;40640;48.130;11.356;2022-08-02T09:40:40;95964.00;;;30.80
54746;BMP180;40640;48.130;11.356;2022-08-02T09:44:54;95956.00;;;29.80
54746;BMP180;40640;48.130;11.356;2022-08-02T09:48:58;95954.00;;;30.00
54746;BMP180;40640;48.130;11.356;2022-08-02T09:53:01;95955.00;;;29.60
54746;BMP180;40640;48.130;11.356;2022-08-02T09:57:07;95957.00;;;30.40
54746;BMP180;40640;48.130;11.356;2022-08-02T10:01:10;95953.00;;;30.70
54746;BMP180;40640;48.130;11.356;2022-08-02T10:05:16;95995.00;;;29.70
54746;BMP180;40640;48.130;11.356;2022-08-02T10:09:21;95961.00;;;28.60
54746;BMP180;40640;48.130;11.356;2022-08-02T10:13:27;95965.00;;;29.50
54746;BMP180;40640;48.130;11.356;2022-08-02T10:17:30;95965.00;;;30.90
54746;BMP180;40640;48.130;11.356;2022-08-02T10:21:38;95965.00;;;30.70
54746;BMP180;40640;48.130;11.356;2022-08-02T10:25:47;95963.00;;;30.90
54746;BMP180;40640;48.130;11.356;2022-08-02T10:29:56;95971.00;;;29.90
54746;BMP180;40640;48.130;11.356;2022-08-02T10:34:02;95970.00;;;30.80
54746;BMP180;40640;48.130;11.356;2022-08-02T10:38:08;95960.00;;;31.30
54746;BMP180;40640;48.130;11.356;2022-08-02T10:42:12;95961.00;;;31.10
54746;BMP180;40640;48.130;11.356;2022-08-02T10:46:37;95952.00;;;31.50
54746;BMP180;40640;48.130;11.356;2022-08-02T10:50:52;95957.00;;;31.80
54746;BMP180;40640;48.130;11.356;2022-08-02T10:54:56;95950.00;;;31.60
54746;BMP180;40640;48.130;11.356;2022-08-02T10:59:22;95945.00;;;31.60
54746;BMP180;40640;48.130;11.356;2022-08-02T11:03:40;95941.00;;;30.40
54746;BMP180;40640;48.130;11.356;2022-08-02T11:07:45;95937.00;;;30.90
54746;BMP180;40640;48.130;11.356;2022-08-02T11:12:00;95937.00;;;30.40
54746;BMP180;40640;48.130;11.356;2022-08-02T11:16:04;95932.00;;;30.90
54746;BMP180;40640;48.130;11.356;2022-08-02T11:20:20;95926.00;;;30.80
54746;BMP180;40640;48.130;11.356;2022-08-02T11:24:25;95935.00;;;30.90
54746;BMP180;40640;48.130;11.356;2022-08-02T11:28:29;95932.00;;;31.30
54746;BMP180;40640;48.130;11.356;2022-08-02T11:32:33;95929.00;;;31.60
54746;BMP180;40640;48.130;11.356;2022-08-02T11:36:45;95920.00;;;32.00
54746;BMP180;40640;48.130;11.356;2022-08-02T11:40:49;95925.00;;;31.50
54746;BMP180;40640;48.130;11.356;2022-08-02T11:44:58;95916.00;;;32.90
54746;BMP180;40640;48.130;11.356;2022-08-02T11:49:12;95924.00;;;33.40
54746;BMP180;40640;48.130;11.356;2022-08-02T11:53:16;95927.00;;;34.20
54746;BMP180;40640;48.130;11.356;2022-08-02T11:57:21;95917.00;;;32.90
54746;BMP180;40640;48.130;11.356;2022-08-02T12:01:23;95916.00;;;35.00
54746;BMP180;40640;48.130;11.356;2022-08-02T12:05:26;95935.00;;;36.40
54746;BMP180;40640;48.130;11.356;2022-08-02T12:09:50;95922.00;;;34.00
54746;BMP180;40640;48.130;11.356;2022-08-02T12:13:55;95936.00;;;34.20
54746;BMP180;40640;48.130;11.356;2022-08-02T12:17:59;95911.00;;;35.50
54746;BMP180;40640;48.130;11.356;2022-08-02T12:22:23;95917.00;;;38.00
54746;BMP180;40640;48.130;11.356;2022-08-02T12:26:29;95919.00;;;39.80
54746;BMP180;40640;48.130;11.356;2022-08-02T12:30:48;95899.00;;;43.50
54746;BMP180;40640;48.130;11.356;2022-08-02T12:35:04;95901.00;;;46.10
54746;BMP180;40640;48.130;11.356;2022-08-02T12:39:11;95884.00;;;48.20
54746;BMP180;40640;48.130;11.356;2022-08-02T12:43:18;95897.00;;;46.00
54746;BMP180;40640;48.130;11.356;2022-08-02T12:47:21;95882.00;;;49.30
54746;BMP180;40640;48.130;11.356;2022-08-02T12:51:37;95883.00;;;48.80
54746;BMP180;40640;48.130;11.356;2022-08-02T12:56:00;95876.00;;;50.20
54746;BMP180;40640;48.130;11.356;2022-08-02T13:00:07;95874.00;;;51.00
54746;BMP180;40640;48.130;11.356;2022-08-02T13:04:10;95871.00;;;50.70
54746;BMP180;40640;48.130;11.356;2022-08-02T13:08:17;95864.00;;;51.80
54746;BMP180;40640;48.130;11.356;2022-08-02T13:12:20;95874.00;;;50.60
54746;BMP180;40640;48.130;11.356;2022-08-02T13:16:24;95875.00;;;50.50
54746;BMP180;40640;48.130;11.356;2022-08-02T13:20:31;95887.00;;;46.40
54746;BMP180;40640;48.130;11.356;2022-08-02T13:24:35;95884.00;;;46.80
54746;BMP180;40640;48.130;11.356;2022-08-02T13:28:56;95889.00;;;45.50
54746;BMP180;40640;48.130;11.356;2022-08-02T13:33:01;95893.00;;;43.70
54746;BMP180;40640;48.130;11.356;2022-08-02T13:37:03;95887.00;;;44.00
54746;BMP180;40640;48.130;11.356;2022-08-02T13:41:06;95903.00;;;41.40
54746;BMP180;40640;48.130;11.356;2022-08-02T13:45:14;95891.00;;;41.20
54746;BMP180;40640;48.130;11.356;2022-08-02T13:49:18;95892.00;;;41.60
54746;BMP180;40640;48.130;11.356;2022-08-02T13:53:33;95892.00;;;41.10
54746;BMP180;40640;48.130;11.356;2022-08-02T13:57:36;95891.00;;;39.30
54746;BMP180;40640;48.130;11.356;2022-08-02T14:01:41;95890.00;;;37.90
54746;BMP180;40640;48.130;11.356;2022-08-02T14:05:46;95906.00;;;36.20
54746;BMP180;40640;48.130;11.356;2022-08-02T14:09:49;95920.00;;;33.70
54746;BMP180;40640;48.130;11.356;2022-08-02T14:13:52;95930.00;;;32.10
54746;BMP180;40640;48.130;11.356;2022-08-02T14:17:55;95904.00;;;31.10
54746;BMP180;40640;48.130;11.356;2022-08-02T14:22:00;95915.00;;;30.20
54746;BMP180;40640;48.130;11.356;2022-08-02T14:26:21;95910.00;;;29.50
54746;BMP180;40640;48.130;11.356;2022-08-02T14:30:28;95907.00;;;29.60
54746;BMP180;40640;48.130;11.356;2022-08-02T14:34:31;95899.00;;;30.50
54746;BMP180;40640;48.130;11.356;2022-08-02T14:38:35;95894.00;;;30.60
54746;BMP180;40640;48.130;11.356;2022-08-02T14:42:38;95902.00;;;30.90
54746;BMP180;40640;48.130;11.356;2022-08-02T14:46:41;95886.00;;;31.00
54746;BMP180;40640;48.130;11.356;2022-08-02T14:50:44;95893.00;;;31.00
54746;BMP180;40640;48.130;11.356;2022-08-02T14:54:48;95891.00;;;31.30
54746;BMP180;40640;48.130;11.356;2022-08-02T14:58:51;95891.00;;;31.40
54746;BMP180;40640;48.130;11.356;2022-08-02T15:02:54;95889.00;;;30.90
54746;BMP180;40640;48.130;11.356;2022-08-02T15:06:57;95885.00;;;31.10
54746;BMP180;40640;48.130;11.356;2022-08-02T15:11:01;95886.00;;;31.10
54746;BMP180;40640;48.130;11.356;2022-08-02T15:15:04;95885.00;;;30.90
54746;BMP180;40640;48.130;11.356;2022-08-02T15:19:07;95885.00;;;30.80
54746;BMP180;40640;48.130;11.356;2022-08-02T15:23:10;95889.00;;;30.60
54746;BMP180;40640;48.130;11.356;2022-08-02T15:27:15;95886.00;;;30.40
54746;BMP180;40640;48.130;11.356;2022-08-02T15:31:18;95893.00;;;30.50
54746;BMP180;40640;48.130;11.356;2022-08-02T15:35:34;95879.00;;;30.40
54746;BMP180;40640;48.130;11.356;2022-08-02T15:39:37;95882.00;;;30.20
54746;BMP180;40640;48.130;11.356;2022-08-02T15:43:41;95878.00;;;30.10
54746;BMP180;40640;48.130;11.356;2022-08-02T15:48:02;95882.00;;;30.00
54746;BMP180;40640;48.130;11.356;2022-08-02T15:52:04;95882.00;;;30.10
54746;BMP180;40640;48.130;11.356;2022-08-02T15:56:07;95876.00;;;29.90
54746;BMP180;40640;48.130;11.356;2022-08-02T16:00:15;95878.00;;;29.70
54746;BMP180;40640;48.130;11.356;2022-08-02T16:04:19;95875.00;;;29.50
54746;BMP180;40640;48.130;11.356;2022-08-02T16:08:22;95880.00;;;29.60
54746;BMP180;40640;48.130;11.356;2022-08-02T16:12:25;95875.00;;;29.50
54746;BMP180;40640;48.130;11.356;2022-08-02T16:16:35;95871.00;;;29.40
54746;BMP180;40640;48.130;11.356;2022-08-02T16:20:39;95866.00;;;29.30
54746;BMP180;40640;48.130;11.356;2022-08-02T16:24:42;95862.00;;;29.40
54746;BMP180;40640;48.130;11.356;2022-08-02T16:28:45;95855.00;;;29.20
54746;BMP180;40640;48.130;11.356;2022-08-02T16:32:49;95859.00;;;29.10
54746;BMP180;40640;48.130;11.356;2022-08-02T16:36:52;95854.00;;;28.90
54746;BMP180;40640;48.130;11.356;2022-08-02T16:40:54;95856.00;;;28.90
54746;BMP180;40640;48.130;11.356;2022-08-02T16:45:02;95847.00;;;28.80
54746;BMP180;40640;48.130;11.356;2022-08-02T16:49:07;95839.00;;;28.80
54746;BMP180;40640;48.130;11.356;2022-08-02T16:53:29;95845.00;;;28.70
54746;BMP180;40640;48.130;11.356;2022-08-02T16:57:52;95848.00;;;28.60
54746;BMP180;40640;48.130;11.356;2022-08-02T17:01:57;95852.00;;;28.50
54746;BMP180;40640;48.130;11.356;2022-08-02T17:06:17;95848.00;;;28.40
54746;BMP180;40640;48.130;11.356;2022-08-02T17:10:19;95849.00;;;28.30
54746;BMP180;40640;48.130;11.356;2022-08-02T17:14:23;95845.00;;;28.20
54746;BMP180;40640;48.130;11.356;2022-08-02T17:18:27;95840.00;;;28.10
54746;BMP180;40640;48.130;11.356;2022-08-02T17:22:31;95842.00;;;27.80
54746;BMP180;40640;48.130;11.356;2022-08-02T17:26:37;95848.00;;;27.70
54746;BMP180;40640;48.130;11.356;2022-08-02T17:30:40;95844.00;;;27.50
54746;BMP180;40640;48.130;11.356;2022-08-02T17:34:45;95846.00;;;27.40
54746;BMP180;40640;48.130;11.356;2022-08-02T17:39:09;95845.00;;;27.20
54746;BMP180;40640;48.130;11.356;2022-08-02T17:43:13;95846.00;;;27.10
54746;BMP180;40640;48.130;11.356;2022-08-02T17:47:17;95846.00;;;27.00
54746;BMP180;40640;48.130;11.356;2022-08-02T17:51:20;95844.00;;;27.00
54746;BMP180;40640;48.130;11.356;2022-08-02T17:55:44;95852.00;;;26.90
54746;BMP180;40640;48.130;11.356;2022-08-02T17:59:55;95857.00;;;26.80
54746;BMP180;40640;48.130;11.356;2022-08-02T18:04:04;95860.00;;;26.80
54746;BMP180;40640;48.130;11.356;2022-08-02T18:08:07;95854.00;;;26.60
54746;BMP180;40640;48.130;11.356;2022-08-02T18:12:12;95863.00;;;26.40
54746;BMP180;40640;48.130;11.356;2022-08-02T18:16:18;95856.00;;;26.10
54746;BMP180;40640;48.130;11.356;2022-08-02T18:20:22;95852.00;;;26.00
54746;BMP180;40640;48.130;11.356;2022-08-02T18:24:25;95859.00;;;25.90
54746;BMP180;40640;48.130;11.356;2022-08-02T18:28:30;95863.00;;;25.70
54746;BMP180;40640;48.130;11.356;2022-08-02T18:32:36;95861.00;;;25.60
54746;BMP180;40640;48.130;11.356;2022-08-02T18:36:58;95865.00;;;25.50
54746;BMP180;40640;48.130;11.356;2022-08-02T18:41:02;95866.00;;;25.30
54746;BMP180;40640;48.130;11.356;2022-08-02T18:45:14;95875.00;;;25.00
54746;BMP180;40640;48.130;11.356;2022-08-02T18:49:21;95876.00;;;24.80
54746;BMP180;40640;48.130;11.356;2022-08-02T18:53:24;95873.00;;;24.60
54746;BMP180;40640;48.130;11.356;2022-08-02T18:57:42;95872.00;;;24.40
54746;BMP180;40640;48.130;11.356;2022-08-02T19:02:06;95870.00;;;24.30
54746;BMP180;40640;48.130;11.356;2022-08-02T19:06:09;95874.00;;;24.10
54746;BMP180;40640;48.130;11.356;2022-08-02T19:10:13;95870.00;;;24.10
54746;BMP180;40640;48.130;11.356;2022-08-02T19:14:17;95861.00;;;23.90
54746;BMP180;40640;48.130;11.356;2022-08-02T19:18:29;95877.00;;;24.00
54746;BMP180;40640;48.130;11.356;2022-08-02T19:22:32;95881.00;;;23.90
54746;BMP180;40640;48.130;11.356;2022-08-02T19:26:35;95874.00;;;23.90
54746;BMP180;40640;48.130;11.356;2022-08-02T19:30:39;95878.00;;;23.80
54746;BMP180;40640;48.130;11.356;2022-08-02T19:34:45;95877.00;;;23.50
54746;BMP180;40640;48.130;11.356;2022-08-02T19:38:49;95877.00;;;23.50
54746;BMP180;40640;48.130;11.356;2022-08-02T19:42:53;95883.00;;;23.40
54746;BMP180;40640;48.130;11.356;2022-08-02T19:47:17;95889.00;;;23.00
54746;BMP180;40640;48.130;11.356;2022-08-02T19:51:21;95885.00;;;22.50
54746;BMP180;40640;48.130;11.356;2022-08-02T19:55:44;95885.00;;;22.70
54746;BMP180;40640;48.130;11.356;2022-08-02T20:00:04;95891.00;;;22.50
54746;BMP180;40640;48.130;11.356;2022-08-02T20:04:15;95890.00;;;22.50
54746;BMP180;40640;48.130;11.356;2022-08-02T20:08:25;95884.00;;;22.40
54746;BMP180;40640;48.130;11.356;2022-08-02T20:12:36;95891.00;;;22.20
54746;BMP180;40640;48.130;11.356;2022-08-02T20:16:39;95887.00;;;22.10
54746;BMP180;40640;48.130;11.356;2022-08-02T20:20:42;95885.00;;;22.20
54746;BMP180;40640;48.130;11.356;2022-08-02T20:24:47;95884.00;;;22.20
54746;BMP180;40640;48.130;11.356;2022-08-02T20:28:50;95879.00;;;22.00
54746;BMP180;40640;48.130;11.356;2022-08-02T20:32:53;95883.00;;;21.80
54746;BMP180;40640;48.130;11.356;2022-08-02T20:37:18;95875.00;;;21.30
54746;BMP180;40640;48.130;11.356;2022-08-02T20:41:44;95891.00;;;21.30
54746;BMP180;40640;48.130;11.356;2022-08-02T20:45:52;95880.00;;;21.30
54746;BMP180;40640;48.130;11.356;2022-08-02T20:49:55;95881.00;;;21.40
54746;BMP180;40640;48.130;11.356;2022-08-02T20:54:17;95891.00;;;21.30
54746;BMP180;40640;48.130;11.356;2022-08-02T20:58:24;95891.00;;;21.40
54746;BMP180;40640;48.130;11.356;2022-08-02T21:02:28;95890.00;;;21.50
54746;BMP180;40640;48.130;11.356;2022-08-02T21:06:32;95887.00;;;21.30
54746;BMP180;40640;48.130;11.356;2022-08-02T21:10:39;95882.00;;;21.30
54746;BMP180;40640;48.130;11.356;2022-08-02T21:14:45;95878.00;;;21.30
54746;BMP180;40640;48.130;11.356;2022-08-02T21:18:50;95868.00;;;21.30
54746;BMP180;40640;48.130;11.356;2022-08-02T21:23:00;95865.00;;;21.20
54746;BMP180;40640;48.130;11.356;2022-08-02T21:27:04;95855.00;;;20.90
54746;BMP180;40640;48.130;11.356;2022-08-02T21:31:28;95863.00;;;20.90
54746;BMP180;40640;48.130;11.356;2022-08-02T21:35:34;95856.00;;;20.60
54746;BMP180;40640;48.130;11.356;2022-08-02T21:39:36;95860.00;;;20.00
54746;BMP180;40640;48.130;11.356;2022-08-02T21:43:39;95860.00;;;20.20
54746;BMP180;40640;48.130;11.356;2022-08-02T21:47:45;95858.00;;;20.10
54746;BMP180;40640;48.130;11.356;2022-08-02T21:51:48;95853.00;;;19.90
54746;BMP180;40640;48.130;11.356;2022-08-02T21:55:51;95851.00;;;19.70
54746;BMP180;40640;48.130;11.356;2022-08-02T22:00:04;95853.00;;;19.80
54746;BMP180;40640;48.130;11.356;2022-08-02T22:04:12;95853.00;;;19.70
54746;BMP180;40640;48.130;11.356;2022-08-02T22:08:16;95850.00;;;19.70
54746;BMP180;40640;48.130;11.356;2022-08-02T22:12:19;95851.00;;;19.40
54746;BMP180;40640;48.130;11.356;2022-08-02T22:16:27;95852.00;;;19.40
54746;BMP180;40640;48.130;11.356;2022-08-02T22:20:31;95850.00;;;19.30
54746;BMP180;40640;48.130;11.356;2022-08-02T22:24:34;95856.00;;;19.30
54746;BMP180;40640;48.130;11.356;2022-08-02T22:28:37;95858.00;;;19.40
54746;BMP180;40640;48.130;11.356;2022-08-02T22:32:52;95853.00;;;19.50
54746;BMP180;40640;48.130;11.356;2022-08-02T22:37:17;95855.00;;;19.50
54746;BMP180;40640;48.130;11.356;2022-08-02T22:41:40;95853.00;;;19.50
54746;BMP180;40640;48.130;11.356;2022-08-02T22:46:02;95853.00;;;19.60
54746;BMP180;40640;48.130;11.356;2022-08-02T22:50:10;95868.00;;;19.30
54746;BMP180;40640;48.130;11.356;2022-08-02T22:54:15;95867.00;;;19.20
54746;BMP180;40640;48.130;11.356;2022-08-02T22:58:17;95869.00;;;19.30
54746;BMP180;40640;48.130;11.356;2022-08-02T23:02:22;95862.00;;;19.20
54746;BMP180;40640;48.130;11.356;2022-08-02T23:06:25;95862.00;;;19.20
54746;BMP180;40640;48.130;11.356;2022-08-02T23:10:30;95856.00;;;19.20
54746;BMP180;40640;48.130;11.356;2022-08-02T23:14:32;95860.00;;;19.10
54746;BMP180;40640;48.130;11.356;2022-08-02T23:18:35;95865.00;;;19.10
54746;BMP180;40640;48.130;11.356;2022-08-02T23:22:55;95857.00;;;18.90